sensor_id;sensor_type;location;lat;lon;timestamp;pressure;altitude;pressure_sealevel;temperature;humidity
4167;BME280;2097;51.104;7.150;2022-12-07T00:01:28;98891.09;;;3.79;100.00
4167;BME280;2097;51.104;7.150;2022-12-07T00:03:57;98897.13;;;3.78;100.00
4167;BME280;2097;51.104;7.150;2022-12-07T00:06:30;98751.72;;;2.93;100.00
4167;BME280;2097;51.104;7.150;2022-12-07T00:08:59;98897.81;;;3.83;100.00
4167;BME280;2097;51.104;7.150;2022-12-07T00:11:26;98897.78;;;3.84;100.00
4167;BME280;2097;51.104;7.150;2022-12-07T00:13:54;98888.47;;;3.80;100.00
4167;BME280;2097;51.104;7.150;2022-12-07T00:16:23;98894.47;;;3.81;100.00
4167;BME280;2097;51.104;7.150;2022-12-07T00:18:50;98891.78;;;3.84;100.00
4167;BME280;2097;51.104;7.150;2022-12-07T00:21:19;98840.56;;;3.53;100.00
4167;BME280;2097;51.104;7.150;2022-12-07T00:23:47;98876.44;;;3.82;100.00
4167;BME280;2097;51.104;7.150;2022-12-07T00:26:17;98882.47;;;3.81;100.00
4167;BME280;2097;51.104;7.150;2022-12-07T00:28:45;98885.03;;;3.81;100.00
4167;BME280;2097;51.104;7.150;2022-12-07T00:31:15;98885.91;;;3.80;100.00
4167;BME280;2097;51.104;7.150;2022-12-07T00:33:42;98885.91;;;3.80;100.00
4167;BME280;2097;51.104;7.150;2022-12-07T00:36:11;98890.16;;;3.81;100.00
4167;BME280;2097;51.104;7.150;2022-12-07T00:38:39;98879.00;;;3.82;100.00
4167;BME280;2097;51.104;7.150;2022-12-07T00:41:08;98883.31;;;3.82;100.00
4167;BME280;2097;51.104;7.150;2022-12-07T00:43:37;98881.56;;;3.82;100.00
4167;BME280;2097;51.104;7.150;2022-12-07T00:46:04;98883.31;;;3.82;100.00
4167;BME280;2097;51.104;7.150;2022-12-07T00:48:31;98879.00;;;3.82;100.00
4167;BME280;2097;51.104;7.150;2022-12-07T00:50:58;98879.00;;;3.82;100.00
4167;BME280;2097;51.104;7.150;2022-12-07T00:53:25;98875.56;;;3.83;100.00
4167;BME280;2097;51.104;7.150;2022-12-07T00:55:52;98874.69;;;3.83;100.00
4167;BME280;2097;51.104;7.150;2022-12-07T00:58:21;98858.66;;;3.76;100.00
4167;BME280;2097;51.104;7.150;2022-12-07T01:00:49;98873.00;;;3.83;100.00
4167;BME280;2097;51.104;7.150;2022-12-07T01:03:17;98873.88;;;3.82;100.00
4167;BME280;2097;51.104;7.150;2022-12-07T01:05:54;98867.06;;;3.81;100.00
4167;BME280;2097;51.104;7.150;2022-12-07T01:08:22;98874.75;;;3.81;100.00
4167;BME280;2097;51.104;7.150;2022-12-07T01:10:57;98872.19;;;3.81;100.00
4167;BME280;2097;51.104;7.150;2022-12-07T01:13:24;98870.50;;;3.82;100.00
4167;BME280;2097;51.104;7.150;2022-12-07T01:15:56;98857.88;;;3.74;100.00
4167;BME280;2097;51.104;7.150;2022-12-07T01:18:25;98865.38;;;3.80;100.00
4167;BME280;2097;51.104;7.150;2022-12-07T01:20:58;98871.41;;;3.79;100.00
4167;BME280;2097;51.104;7.150;2022-12-07T01:23:25;98868.91;;;3.78;100.00
4167;BME280;2097;51.104;7.150;2022-12-07T01:25:54;98864.69;;;3.75;100.00
4167;BME280;2097;51.104;7.150;2022-12-07T01:28:21;98868.09;;;3.76;100.00
4167;BME280;2097;51.104;7.150;2022-12-07T01:30:56;98862.09;;;3.75;100.00
4167;BME280;2097;51.104;7.150;2022-12-07T01:33:23;98870.66;;;3.76;100.00
4167;BME280;2097;51.104;7.150;2022-12-07T01:35:50;98865.47;;;3.77;100.00
4167;BME280;2097;51.104;7.150;2022-12-07T01:38:17;98873.16;;;3.79;100.00
4167;BME280;2097;51.104;7.150;2022-12-07T01:40:44;98795.84;;;3.33;100.00
4167;BME280;2097;51.104;7.150;2022-12-07T01:43:15;98830.41;;;3.49;100.00
4167;BME280;2097;51.104;7.150;2022-12-07T01:45:44;98871.50;;;3.76;100.00
4167;BME280;2097;51.104;7.150;2022-12-07T01:48:14;98873.16;;;3.77;100.00
4167;BME280;2097;51.104;7.150;2022-12-07T01:50:43;98862.09;;;3.77;100.00
4167;BME280;2097;51.104;7.150;2022-12-07T01:53:12;98862.03;;;3.78;100.00
4167;BME280;2097;51.104;7.150;2022-12-07T01:55:42;98849.19;;;3.78;100.00
4167;BME280;2097;51.104;7.150;2022-12-07T01:58:11;98757.00;;;3.18;100.00
4167;BME280;2097;51.104;7.150;2022-12-07T02:00:39;98856.88;;;3.78;100.00
4167;BME280;2097;51.104;7.150;2022-12-07T02:03:09;98856.06;;;3.78;100.00
4167;BME280;2097;51.104;7.150;2022-12-07T02:05:41;98819.88;;;3.58;100.00
4167;BME280;2097;51.104;7.150;2022-12-07T02:08:09;98851.72;;;3.80;100.00
4167;BME280;2097;51.104;7.150;2022-12-07T02:10:37;98525.44;;;1.79;100.00
4167;BME280;2097;51.104;7.150;2022-12-07T02:13:06;98770.38;;;3.27;100.00
4167;BME280;2097;51.104;7.150;2022-12-07T02:15:53;98857.75;;;3.79;100.00
4167;BME280;2097;51.104;7.150;2022-12-07T02:18:35;98845.81;;;3.78;100.00
4167;BME280;2097;51.104;7.150;2022-12-07T02:21:13;98844.13;;;3.77;100.00
4167;BME280;2097;51.104;7.150;2022-12-07T02:24:03;98710.72;;;2.93;100.00
4167;BME280;2097;51.104;7.150;2022-12-07T02:26:54;98847.56;;;3.76;100.00
4167;BME280;2097;51.104;7.150;2022-12-07T02:29:33;98845.88;;;3.75;100.00
4167;BME280;2097;51.104;7.150;2022-12-07T02:32:07;98828.34;;;3.61;100.00
4167;BME280;2097;51.104;7.150;2022-12-07T02:34:44;98716.59;;;2.97;100.00
4167;BME280;2097;51.104;7.150;2022-12-07T02:37:21;98852.69;;;3.76;100.00
4167;BME280;2097;51.104;7.150;2022-12-07T02:39:55;98862.91;;;3.77;100.00
4167;BME280;2097;51.104;7.150;2022-12-07T02:42:28;98831.59;;;3.66;100.00
4167;BME280;2097;51.104;7.150;2022-12-07T02:44:59;98846.63;;;3.78;100.00
4167;BME280;2097;51.104;7.150;2022-12-07T02:47:28;98849.25;;;3.77;100.00
4167;BME280;2097;51.104;7.150;2022-12-07T02:49:56;98856.09;;;3.76;100.00
4167;BME280;2097;51.104;7.150;2022-12-07T02:52:23;98849.28;;;3.75;100.00
4167;BME280;2097;51.104;7.150;2022-12-07T02:54:50;98842.53;;;3.73;100.00
4167;BME280;2097;51.104;7.150;2022-12-07T02:57:28;98851.84;;;3.75;100.00
4167;BME280;2097;51.104;7.150;2022-12-07T03:00:05;98788.09;;;3.34;100.00
4167;BME280;2097;51.104;7.150;2022-12-07T03:02:41;98730.03;;;3.05;100.00
4167;BME280;2097;51.104;7.150;2022-12-07T03:05:23;98825.97;;;3.55;100.00
4167;BME280;2097;51.104;7.150;2022-12-07T03:07:57;98810.59;;;3.54;100.00
4167;BME280;2097;51.104;7.150;2022-12-07T03:10:35;98797.22;;;3.44;100.00
4167;BME280;2097;51.104;7.150;2022-12-07T03:13:09;98845.03;;;3.74;100.00
4167;BME280;2097;51.104;7.150;2022-12-07T03:15:44;98848.47;;;3.73;100.00
4167;BME280;2097;51.104;7.150;2022-12-07T03:18:14;98851.84;;;3.75;100.00
4167;BME280;2097;51.104;7.150;2022-12-07T03:20:43;98814.91;;;3.53;100.00
4167;BME280;2097;51.104;7.150;2022-12-07T03:23:12;98844.22;;;3.74;100.00
4167;BME280;2097;51.104;7.150;2022-12-07T03:25:40;98797.16;;;3.46;100.00
4167;BME280;2097;51.104;7.150;2022-12-07T03:28:11;98853.63;;;3.73;100.00
4167;BME280;2097;51.104;7.150;2022-12-07T03:30:44;98847.66;;;3.73;100.00
4167;BME280;2097;51.104;7.150;2022-12-07T03:33:17;98851.94;;;3.72;100.00
4167;BME280;2097;51.104;7.150;2022-12-07T03:35:49;98811.44;;;3.54;100.00
4167;BME280;2097;51.104;7.150;2022-12-07T03:38:23;98846.72;;;3.75;100.00
4167;BME280;2097;51.104;7.150;2022-12-07T03:40:56;98841.59;;;3.75;100.00
4167;BME280;2097;51.104;7.150;2022-12-07T03:43:25;98804.63;;;3.53;100.00
4167;BME280;2097;51.104;7.150;2022-12-07T03:46:01;98850.16;;;3.74;100.00
4167;BME280;2097;51.104;7.150;2022-12-07T03:48:37;98848.47;;;3.73;100.00
4167;BME280;2097;51.104;7.150;2022-12-07T03:51:11;98848.41;;;3.76;100.00
4167;BME280;2097;51.104;7.150;2022-12-07T03:53:44;98833.84;;;3.77;100.00
4167;BME280;2097;51.104;7.150;2022-12-07T03:56:13;98846.63;;;3.78;100.00
4167;BME280;2097;51.104;7.150;2022-12-07T03:58:41;98840.69;;;3.76;100.00
4167;BME280;2097;51.104;7.150;2022-12-07T04:01:10;98843.25;;;3.76;100.00
4167;BME280;2097;51.104;7.150;2022-12-07T04:03:37;98789.50;;;3.44;100.00
4167;BME280;2097;51.104;7.150;2022-12-07T04:06:05;98831.31;;;3.75;100.00
4167;BME280;2097;51.104;7.150;2022-12-07T04:08:32;98776.06;;;3.36;100.00
4167;BME280;2097;51.104;7.150;2022-12-07T04:13:26;98840.66;;;3.78;100.00
4167;BME280;2097;51.104;7.150;2022-12-07T04:15:53;98849.09;;;3.81;100.00
4167;BME280;2097;51.104;7.150;2022-12-07T04:18:21;98846.59;;;3.80;100.00
4167;BME280;2097;51.104;7.150;2022-12-07T04:20:48;98837.16;;;3.80;100.00
4167;BME280;2097;51.104;7.150;2022-12-07T04:23:15;98844.84;;;3.80;100.00
4167;BME280;2097;51.104;7.150;2022-12-07T04:25:43;98843.19;;;3.79;100.00
4167;BME280;2097;51.104;7.150;2022-12-07T04:28:10;98846.63;;;3.78;100.00
4167;BME280;2097;51.104;7.150;2022-12-07T04:30:36;98846.59;;;3.80;100.00
4167;BME280;2097;51.104;7.150;2022-12-07T04:33:03;98839.78;;;3.79;100.00
4167;BME280;2097;51.104;7.150;2022-12-07T04:35:31;98842.38;;;3.77;100.00
4167;BME280;2097;51.104;7.150;2022-12-07T04:37:58;98837.25;;;3.77;100.00
4167;BME280;2097;51.104;7.150;2022-12-07T04:40:25;98839.81;;;3.77;100.00
4167;BME280;2097;51.104;7.150;2022-12-07T04:42:52;98836.34;;;3.78;100.00
4167;BME280;2097;51.104;7.150;2022-12-07T04:45:19;98828.72;;;3.77;100.00
4167;BME280;2097;51.104;7.150;2022-12-07T04:47:45;98836.34;;;3.78;100.00
4167;BME280;2097;51.104;7.150;2022-12-07T04:50:12;98835.47;;;3.79;100.00
4167;BME280;2097;51.104;7.150;2022-12-07T04:52:40;98832.91;;;3.79;100.00
4167;BME280;2097;51.104;7.150;2022-12-07T04:55:07;98838.13;;;3.76;100.00
4167;BME280;2097;51.104;7.150;2022-12-07T04:57:34;98827.88;;;3.76;100.00
4167;BME280;2097;51.104;7.150;2022-12-07T05:00:01;98827.13;;;3.73;100.00
4167;BME280;2097;51.104;7.150;2022-12-07T05:02:28;98833.09;;;3.73;100.00
4167;BME280;2097;51.104;7.150;2022-12-07T05:04:55;98827.97;;;3.73;100.00
4167;BME280;2097;51.104;7.150;2022-12-07T05:07:21;98828.00;;;3.72;100.00
4167;BME280;2097;51.104;7.150;2022-12-07T05:09:50;98827.16;;;3.71;100.00
4167;BME280;2097;51.104;7.150;2022-12-07T05:12:16;98825.44;;;3.72;100.00
4167;BME280;2097;51.104;7.150;2022-12-07T05:14:43;98837.31;;;3.76;100.00
4167;BME280;2097;51.104;7.150;2022-12-07T05:17:10;98842.47;;;3.74;100.00
4167;BME280;2097;51.104;7.150;2022-12-07T05:19:37;98839.97;;;3.73;100.00
4167;BME280;2097;51.104;7.150;2022-12-07T05:22:04;98851.94;;;3.72;100.00
4167;BME280;2097;51.104;7.150;2022-12-07T05:24:31;98830.66;;;3.69;100.00
4167;BME280;2097;51.104;7.150;2022-12-07T05:26:59;98821.47;;;3.62;100.00
4167;BME280;2097;51.104;7.150;2022-12-07T05:29:25;98819.25;;;3.50;100.00
4167;BME280;2097;51.104;7.150;2022-12-07T05:31:52;98825.56;;;3.40;100.00
4167;BME280;2097;51.104;7.150;2022-12-07T05:34:19;98830.81;;;3.35;100.00
4167;BME280;2097;51.104;7.150;2022-12-07T05:36:46;98829.13;;;3.34;100.00
4167;BME280;2097;51.104;7.150;2022-12-07T05:39:13;98827.34;;;3.38;100.00
4167;BME280;2097;51.104;7.150;2022-12-07T05:41:39;98831.50;;;3.42;100.00
4167;BME280;2097;51.104;7.150;2022-12-07T05:44:25;98824.53;;;3.45;100.00
4167;BME280;2097;51.104;7.150;2022-12-07T05:46:52;98832.13;;;3.48;100.00
4167;BME280;2097;51.104;7.150;2022-12-07T05:49:19;98816.66;;;3.51;100.00
4167;BME280;2097;51.104;7.150;2022-12-07T05:51:46;98826.94;;;3.51;100.00
4167;BME280;2097;51.104;7.150;2022-12-07T05:54:12;98825.06;;;3.56;100.00
4167;BME280;2097;51.104;7.150;2022-12-07T05:56:39;98831.88;;;3.57;100.00
4167;BME280;2097;51.104;7.150;2022-12-07T05:59:07;98824.19;;;3.57;100.00
4167;BME280;2097;51.104;7.150;2022-12-07T06:01:49;98825.06;;;3.56;100.00
4167;BME280;2097;51.104;7.150;2022-12-07T06:04:17;98826.66;;;3.60;100.00
4167;BME280;2097;51.104;7.150;2022-12-07T06:06:44;98829.22;;;3.60;100.00
4167;BME280;2097;51.104;7.150;2022-12-07T06:09:11;98823.31;;;3.58;100.00
4167;BME280;2097;51.104;7.150;2022-12-07T06:11:38;98830.19;;;3.56;100.00
4167;BME280;2097;51.104;7.150;2022-12-07T06:14:24;98827.66;;;3.55;100.00
4167;BME280;2097;51.104;7.150;2022-12-07T06:16:52;98831.13;;;3.54;100.00
4167;BME280;2097;51.104;7.150;2022-12-07T06:19:19;98790.16;;;3.24;100.00
4167;BME280;2097;51.104;7.150;2022-12-07T06:21:46;98834.53;;;3.54;100.00
4167;BME280;2097;51.104;7.150;2022-12-07T06:24:14;98675.03;;;2.58;100.00
4167;BME280;2097;51.104;7.150;2022-12-07T06:26:41;98699.38;;;2.73;100.00
4167;BME280;2097;51.104;7.150;2022-12-07T06:29:09;98529.84;;;1.74;100.00
4167;BME280;2097;51.104;7.150;2022-12-07T06:31:36;98835.41;;;3.53;100.00
4167;BME280;2097;51.104;7.150;2022-12-07T06:34:07;98799.47;;;3.26;100.00
4167;BME280;2097;51.104;7.150;2022-12-07T06:36:35;98837.19;;;3.51;100.00
4167;BME280;2097;51.104;7.150;2022-12-07T06:39:02;98835.50;;;3.50;100.00
4167;BME280;2097;51.104;7.150;2022-12-07T06:41:29;98844.09;;;3.49;100.00
4167;BME280;2097;51.104;7.150;2022-12-07T06:43:56;98842.41;;;3.48;100.00
4167;BME280;2097;51.104;7.150;2022-12-07T06:46:23;98624.78;;;2.24;100.00
4167;BME280;2097;51.104;7.150;2022-12-07T06:48:50;98817.09;;;3.36;100.00
4167;BME280;2097;51.104;7.150;2022-12-07T06:51:19;98829.81;;;3.41;100.00
4167;BME280;2097;51.104;7.150;2022-12-07T06:53:46;98833.34;;;3.37;100.00
4167;BME280;2097;51.104;7.150;2022-12-07T06:56:12;98826.72;;;3.29;100.00
4167;BME280;2097;51.104;7.150;2022-12-07T06:58:40;98838.41;;;3.38;100.00
4167;BME280;2097;51.104;7.150;2022-12-07T07:01:09;98833.25;;;3.40;100.00
4167;BME280;2097;51.104;7.150;2022-12-07T07:03:36;98839.19;;;3.42;100.00
4167;BME280;2097;51.104;7.150;2022-12-07T07:06:03;98846.03;;;3.41;100.00
4167;BME280;2097;51.104;7.150;2022-12-07T07:08:31;98848.59;;;3.41;100.00
4167;BME280;2097;51.104;7.150;2022-12-07T07:10:58;98856.28;;;3.41;100.00
4167;BME280;2097;51.104;7.150;2022-12-07T07:13:25;98851.22;;;3.40;100.00
4167;BME280;2097;51.104;7.150;2022-12-07T07:15:51;98893.94;;;3.39;100.00
4167;BME280;2097;51.104;7.150;2022-12-07T07:18:18;98846.09;;;3.38;100.00
4167;BME280;2097;51.104;7.150;2022-12-07T07:20:45;98850.44;;;3.36;100.00
4167;BME280;2097;51.104;7.150;2022-12-07T07:23:12;98850.44;;;3.36;100.00
4167;BME280;2097;51.104;7.150;2022-12-07T07:25:40;98831.91;;;3.27;100.00
4167;BME280;2097;51.104;7.150;2022-12-07T07:28:07;98843.53;;;3.38;100.00
4167;BME280;2097;51.104;7.150;2022-12-07T07:30:33;98854.66;;;3.39;100.00
4167;BME280;2097;51.104;7.150;2022-12-07T07:33:01;98823.50;;;3.22;100.00
4167;BME280;2097;51.104;7.150;2022-12-07T07:35:30;98840.31;;;3.32;100.00
4167;BME280;2097;51.104;7.150;2022-12-07T07:37:58;98817.00;;;3.11;100.00
4167;BME280;2097;51.104;7.150;2022-12-07T07:40:26;98851.22;;;3.38;100.00
4167;BME280;2097;51.104;7.150;2022-12-07T07:42:55;98852.03;;;3.40;100.00
4167;BME280;2097;51.104;7.150;2022-12-07T07:45:23;98856.28;;;3.41;100.00
4167;BME280;2097;51.104;7.150;2022-12-07T07:47:50;98849.47;;;3.40;100.00
4167;BME280;2097;51.104;7.150;2022-12-07T07:50:18;98850.31;;;3.41;100.00
4167;BME280;2097;51.104;7.150;2022-12-07T07:52:45;98861.41;;;3.41;100.00
4167;BME280;2097;51.104;7.150;2022-12-07T07:55:13;98860.59;;;3.39;100.00
4167;BME280;2097;51.104;7.150;2022-12-07T07:57:41;98860.59;;;3.39;100.00
4167;BME280;2097;51.104;7.150;2022-12-07T08:00:12;98862.28;;;3.40;100.00
4167;BME280;2097;51.104;7.150;2022-12-07T08:02:39;98863.94;;;3.43;100.00
4167;BME280;2097;51.104;7.150;2022-12-07T08:05:07;98836.81;;;3.34;100.00
4167;BME280;2097;51.104;7.150;2022-12-07T08:07:33;98861.16;;;3.50;100.00
4167;BME280;2097;51.104;7.150;2022-12-07T08:10:00;98860.28;;;3.51;100.00
4167;BME280;2097;51.104;7.150;2022-12-07T08:12:27;98861.06;;;3.53;100.00
4167;BME280;2097;51.104;7.150;2022-12-07T08:14:54;98865.34;;;3.53;100.00
4167;BME280;2097;51.104;7.150;2022-12-07T08:17:22;98873.09;;;3.51;100.00
4167;BME280;2097;51.104;7.150;2022-12-07T08:19:49;98863.97;;;3.41;100.00
4167;BME280;2097;51.104;7.150;2022-12-07T08:22:16;98874.88;;;3.49;100.00
4167;BME280;2097;51.104;7.150;2022-12-07T08:24:43;98869.59;;;3.54;100.00
4167;BME280;2097;51.104;7.150;2022-12-07T08:27:10;98880.63;;;3.57;100.00
4167;BME280;2097;51.104;7.150;2022-12-07T08:29:36;98873.72;;;3.59;100.00
4167;BME280;2097;51.104;7.150;2022-12-07T08:32:03;98879.66;;;3.61;100.00
4167;BME280;2097;51.104;7.150;2022-12-07T08:34:32;98883.09;;;3.60;100.00
4167;BME280;2097;51.104;7.150;2022-12-07T08:36:58;98884.88;;;3.58;100.00
4167;BME280;2097;51.104;7.150;2022-12-07T08:39:25;98886.56;;;3.59;100.00
4167;BME280;2097;51.104;7.150;2022-12-07T08:41:52;98885.59;;;3.63;100.00
4167;BME280;2097;51.104;7.150;2022-12-07T08:44:19;98878.72;;;3.64;100.00
4167;BME280;2097;51.104;7.150;2022-12-07T08:46:48;98876.09;;;3.65;100.00
4167;BME280;2097;51.104;7.150;2022-12-07T08:49:19;98881.22;;;3.65;100.00
4167;BME280;2097;51.104;7.150;2022-12-07T08:51:48;98882.06;;;3.66;100.00
4167;BME280;2097;51.104;7.150;2022-12-07T08:54:16;98882.06;;;3.66;100.00
4167;BME280;2097;51.104;7.150;2022-12-07T08:56:44;98877.78;;;3.66;100.00
4167;BME280;2097;51.104;7.150;2022-12-07T08:59:13;98881.03;;;3.71;100.00
4167;BME280;2097;51.104;7.150;2022-12-07T09:01:40;98877.59;;;3.72;100.00
4167;BME280;2097;51.104;7.150;2022-12-07T09:04:07;98874.91;;;3.77;100.00
4167;BME280;2097;51.104;7.150;2022-12-07T09:06:34;98875.66;;;3.80;100.00
4167;BME280;2097;51.104;7.150;2022-12-07T09:09:03;98868.91;;;3.78;100.00
4167;BME280;2097;51.104;7.150;2022-12-07T09:11:30;98867.94;;;3.80;100.00
4167;BME280;2097;51.104;7.150;2022-12-07T09:13:57;98873.72;;;3.87;100.00
4167;BME280;2097;51.104;7.150;2022-12-07T09:16:24;98872.75;;;3.91;100.00
4167;BME280;2097;51.104;7.150;2022-12-07T09:18:51;98883.00;;;3.92;100.00
4167;BME280;2097;51.104;7.150;2022-12-07T09:21:17;98873.63;;;3.91;100.00
4167;BME280;2097;51.104;7.150;2022-12-07T09:23:44;98884.59;;;3.96;100.00
4167;BME280;2097;51.104;7.150;2022-12-07T09:26:13;98882.56;;;4.06;100.00
4167;BME280;2097;51.104;7.150;2022-12-07T09:28:39;98882.41;;;4.12;100.00
4167;BME280;2097;51.104;7.150;2022-12-07T09:31:06;98876.31;;;4.14;100.00
4167;BME280;2097;51.104;7.150;2022-12-07T09:33:33;98878.09;;;4.12;100.00
4167;BME280;2097;51.104;7.150;2022-12-07T09:36:00;98879.75;;;4.13;100.00
4167;BME280;2097;51.104;7.150;2022-12-07T09:38:27;98883.97;;;4.16;100.00
4167;BME280;2097;51.104;7.150;2022-12-07T09:40:55;98880.72;;;4.11;100.00
4167;BME280;2097;51.104;7.150;2022-12-07T09:43:25;98885.09;;;4.07;100.00
4167;BME280;2097;51.104;7.150;2022-12-07T09:45:54;98884.44;;;4.01;100.00
4167;BME280;2097;51.104;7.150;2022-12-07T09:48:26;98883.63;;;4.00;100.00
4167;BME280;2097;51.104;7.150;2022-12-07T09:50:57;98880.19;;;4.00;100.00
4167;BME280;2097;51.104;7.150;2022-12-07T09:53:27;98879.41;;;3.98;100.00
4167;BME280;2097;51.104;7.150;2022-12-07T09:55:55;98877.53;;;4.03;100.00
4167;BME280;2097;51.104;7.150;2022-12-07T09:58:25;98885.94;;;4.08;100.00
4167;BME280;2097;51.104;7.150;2022-12-07T10:00:54;98867.16;;;4.06;100.00
4167;BME280;2097;51.104;7.150;2022-12-07T10:03:22;98880.47;;;4.18;100.00
4167;BME280;2097;51.104;7.150;2022-12-07T10:05:51;98873.63;;;4.19;100.00
4167;BME280;2097;51.104;7.150;2022-12-07T10:08:18;98885.53;;;4.20;100.00
4167;BME280;2097;51.104;7.150;2022-12-07T10:10:49;98867.53;;;4.21;100.00
4167;BME280;2097;51.104;7.150;2022-12-07T10:13:20;98627.63;;;2.73;100.00
4167;BME280;2097;51.104;7.150;2022-12-07T10:15:51;98860.19;;;4.09;100.00
4167;BME280;2097;51.104;7.150;2022-12-07T10:18:20;98864.34;;;4.13;100.00
4167;BME280;2097;51.104;7.150;2022-12-07T10:20:48;98856.66;;;4.13;100.00
4167;BME280;2097;51.104;7.150;2022-12-07T10:23:17;98851.59;;;4.12;100.00
4167;BME280;2097;51.104;7.150;2022-12-07T10:25:44;98853.75;;;4.24;100.00
4167;BME280;2097;51.104;7.150;2022-12-07T10:28:15;98853.19;;;4.40;100.00
4167;BME280;2097;51.104;7.150;2022-12-07T10:30:50;98641.50;;;3.22;100.00
4167;BME280;2097;51.104;7.150;2022-12-07T10:33:32;98848.75;;;4.45;100.00
4167;BME280;2097;51.104;7.150;2022-12-07T10:36:00;98844.41;;;4.47;100.00
4167;BME280;2097;51.104;7.150;2022-12-07T10:38:28;98846.16;;;4.47;100.00
4167;BME280;2097;51.104;7.150;2022-12-07T10:41:05;98842.81;;;4.45;100.00
4167;BME280;2097;51.104;7.150;2022-12-07T10:43:32;98836.78;;;4.46;100.00
4167;BME280;2097;51.104;7.150;2022-12-07T10:46:28;98841.16;;;4.42;100.00
4167;BME280;2097;51.104;7.150;2022-12-07T10:49:07;98835.97;;;4.44;100.00
4167;BME280;2097;51.104;7.150;2022-12-07T10:51:42;98836.06;;;4.41;100.00
4167;BME280;2097;51.104;7.150;2022-12-07T10:54:19;98831.09;;;4.36;100.00
4167;BME280;2097;51.104;7.150;2022-12-07T10:57:01;98826.84;;;4.35;100.00
4167;BME280;2097;51.104;7.150;2022-12-07T10:59:57;98818.19;;;4.38;100.00
4167;BME280;2097;51.104;7.150;2022-12-07T11:02:39;98817.25;;;4.40;100.00
4167;BME280;2097;51.104;7.150;2022-12-07T11:05:16;98806.78;;;4.46;100.00
4167;BME280;2097;51.104;7.150;2022-12-07T11:07:51;98808.09;;;4.57;100.00
4167;BME280;2097;51.104;7.150;2022-12-07T11:10:26;98806.28;;;4.61;100.00
4167;BME280;2097;51.104;7.150;2022-12-07T11:13:10;98811.31;;;4.64;100.00
4167;BME280;2097;51.104;7.150;2022-12-07T11:15:50;98804.50;;;4.63;100.00
4167;BME280;2097;51.104;7.150;2022-12-07T11:18:25;98789.28;;;4.57;100.00
4167;BME280;2097;51.104;7.150;2022-12-07T11:21:06;98636.41;;;3.72;100.00
4167;BME280;2097;51.104;7.150;2022-12-07T11:23:43;98797.97;;;4.77;100.00
4167;BME280;2097;51.104;7.150;2022-12-07T11:26:20;98791.25;;;4.73;100.00
4167;BME280;2097;51.104;7.150;2022-12-07T11:29:06;98787.28;;;4.65;100.00
4167;BME280;2097;51.104;7.150;2022-12-07T11:31:41;98774.91;;;4.51;100.00
4167;BME280;2097;51.104;7.150;2022-12-07T11:34:21;98778.03;;;4.59;100.00
4167;BME280;2097;51.104;7.150;2022-12-07T11:36:52;98780.31;;;4.68;100.00
4167;BME280;2097;51.104;7.150;2022-12-07T11:39:26;98775.84;;;4.73;100.00
4167;BME280;2097;51.104;7.150;2022-12-07T11:42:00;98764.94;;;4.67;100.00
4167;BME280;2097;51.104;7.150;2022-12-07T11:44:33;98782.34;;;4.83;100.00
4167;BME280;2097;51.104;7.150;2022-12-07T11:47:06;98784.84;;;4.85;100.00
4167;BME280;2097;51.104;7.150;2022-12-07T11:49:42;98777.13;;;4.85;100.00
4167;BME280;2097;51.104;7.150;2022-12-07T11:52:18;98772.06;;;4.83;100.00
4167;BME280;2097;51.104;7.150;2022-12-07T11:54:47;98766.94;;;4.83;100.00
4167;BME280;2097;51.104;7.150;2022-12-07T11:57:22;98765.97;;;4.86;100.00
4167;BME280;2097;51.104;7.150;2022-12-07T11:59:58;98763.13;;;4.93;100.00
4167;BME280;2097;51.104;7.150;2022-12-07T12:02:32;98762.28;;;4.93;100.00
4167;BME280;2097;51.104;7.150;2022-12-07T12:05:12;98759.72;;;4.93;100.00
4167;BME280;2097;51.104;7.150;2022-12-07T12:07:41;98759.22;;;5.06;100.00
4167;BME280;2097;51.104;7.150;2022-12-07T12:10:17;98762.13;;;5.20;100.00
4167;BME280;2097;51.104;7.150;2022-12-07T12:13:02;98755.09;;;5.47;100.00
4167;BME280;2097;51.104;7.150;2022-12-07T12:15:44;98756.50;;;5.76;100.00
4167;BME280;2097;51.104;7.150;2022-12-07T12:18:37;98760.19;;;5.92;100.00
4167;BME280;2097;51.104;7.150;2022-12-07T12:21:10;98759.81;;;6.01;100.00
4167;BME280;2097;51.104;7.150;2022-12-07T12:23:42;98760.13;;;5.94;100.00
4167;BME280;2097;51.104;7.150;2022-12-07T12:26:16;98751.78;;;5.87;100.00
4167;BME280;2097;51.104;7.150;2022-12-07T12:28:52;98753.06;;;5.77;100.00
4167;BME280;2097;51.104;7.150;2022-12-07T12:31:32;98749.91;;;5.69;100.00
4167;BME280;2097;51.104;7.150;2022-12-07T12:34:03;98746.88;;;5.60;100.00
4167;BME280;2097;51.104;7.150;2022-12-07T12:36:47;98743.00;;;5.49;100.00
4167;BME280;2097;51.104;7.150;2022-12-07T12:39:15;98746.78;;;5.40;100.00
4167;BME280;2097;51.104;7.150;2022-12-07T12:41:58;98739.47;;;5.30;100.00
4167;BME280;2097;51.104;7.150;2022-12-07T12:47:53;98717.25;;;5.06;100.00
4167;BME280;2097;51.104;7.150;2022-12-07T12:50:23;98724.97;;;5.06;100.00
4167;BME280;2097;51.104;7.150;2022-12-07T12:53:21;98731.22;;;4.99;100.00
4167;BME280;2097;51.104;7.150;2022-12-07T12:59:23;98727.13;;;4.93;100.00
4167;BME280;2097;51.104;7.150;2022-12-07T13:01:50;98724.44;;;4.96;100.00
4167;BME280;2097;51.104;7.150;2022-12-07T13:04:49;98707.50;;;4.91;100.00
4167;BME280;2097;51.104;7.150;2022-12-07T13:10:41;98713.00;;;5.05;100.00
4167;BME280;2097;51.104;7.150;2022-12-07T13:13:33;98719.75;;;5.07;100.00
4167;BME280;2097;51.104;7.150;2022-12-07T13:22:48;98714.00;;;5.01;100.00
4167;BME280;2097;51.104;7.150;2022-12-07T13:25:21;98706.44;;;4.96;100.00
4167;BME280;2097;51.104;7.150;2022-12-07T13:27:57;98707.41;;;4.94;100.00
4167;BME280;2097;51.104;7.150;2022-12-07T13:30:24;98710.00;;;4.92;100.00
4167;BME280;2097;51.104;7.150;2022-12-07T13:32:53;98689.28;;;4.74;100.00
4167;BME280;2097;51.104;7.150;2022-12-07T13:35:31;98705.84;;;4.90;100.00
4167;BME280;2097;51.104;7.150;2022-12-07T13:37:59;98695.56;;;4.90;100.00
4167;BME280;2097;51.104;7.150;2022-12-07T13:40:26;98672.84;;;4.78;100.00
4167;BME280;2097;51.104;7.150;2022-12-07T13:43:02;98630.31;;;4.48;100.00
4167;BME280;2097;51.104;7.150;2022-12-07T13:45:31;98679.00;;;4.74;100.00
4167;BME280;2097;51.104;7.150;2022-12-07T13:48:22;98692.88;;;4.70;100.00
4167;BME280;2097;51.104;7.150;2022-12-07T13:50:55;98666.94;;;4.53;100.00
4167;BME280;2097;51.104;7.150;2022-12-07T13:53:22;98668.78;;;4.49;100.00
4167;BME280;2097;51.104;7.150;2022-12-07T13:55:49;98679.69;;;4.56;100.00
4167;BME280;2097;51.104;7.150;2022-12-07T13:58:18;98672.03;;;4.54;100.00
4167;BME280;2097;51.104;7.150;2022-12-07T14:00:45;98656.00;;;4.48;100.00